Time;durP1;ratioP1;P1;durP2;ratioP2;P2;SDS_P1;SDS_P2;PMS_P1;PMS_P2;Temp;Humidity;BMP_temperature;BMP_pressure;BME280_temperature;BME280_humidity;BME280_pressure;Samples;Min_cycle;Max_cycle;Signal;HPM_P1;HPM_P2
2024/01/08 00:00:16;;;;;;;12.30;7.10;;;-0.50;99.90;;;;;;5093873;28;20036;-50
2024/01/08 00:02:42;;;;;;;16.05;6.97;;;-0.50;99.90;;;;;;5094879;28;20034;-52
2024/01/08 00:05:08;;;;;;;12.75;6.75;;;-0.50;99.90;;;;;;5094153;28;20033;-48
2024/01/08 00:07:33;;;;;;;16.55;7.20;;;-0.50;99.90;;;;;;5093932;28;20531;-52
2024/01/08 00:09:59;;;;;;;10.95;6.53;;;-0.50;99.90;;;;;;5093783;28;20442;-52
2024/01/08 00:12:24;;;;;;;11.32;6.35;;;-0.50;99.90;;;;;;5095404;28;20353;-51
2024/01/08 00:14:50;;;;;;;22.95;7.75;;;-0.50;99.90;;;;;;5093885;28;20012;-50
2024/01/08 00:17:16;;;;;;;12.02;6.00;;;-0.50;99.90;;;;;;5094038;28;20024;-52
2024/01/08 00:19:41;;;;;;;15.00;7.07;;;-0.50;99.90;;;;;;5094542;28;20065;-51
2024/01/08 00:22:07;;;;;;;14.38;7.95;;;-0.50;99.90;;;;;;5093760;28;20227;-53
2024/01/08 00:24:32;;;;;;;11.93;6.78;;;-0.60;99.90;;;;;;5095183;28;20016;-53
2024/01/08 00:26:58;;;;;;;11.15;5.72;;;-0.60;99.90;;;;;;5093577;28;20051;-50
2024/01/08 00:29:24;;;;;;;9.93;5.63;;;-0.60;99.90;;;;;;5094812;28;20031;-52
2024/01/08 00:31:49;;;;;;;11.45;5.88;;;-0.60;99.90;;;;;;5097456;28;20472;-49
2024/01/08 00:34:15;;;;;;;9.55;5.00;;;-0.60;99.90;;;;;;5098536;28;20512;-52
2024/01/08 00:36:41;;;;;;;8.43;5.13;;;-0.60;99.90;;;;;;5098630;28;20015;-51
2024/01/08 00:39:09;;;;;;;9.45;5.68;;;-0.70;99.90;;;;;;5098564;28;20397;-54
2024/01/08 00:41:35;;;;;;;13.65;5.55;;;-0.70;99.90;;;;;;5097748;28;20027;-49
2024/01/08 00:44:03;;;;;;;10.85;5.93;;;-0.70;99.90;;;;;;5099776;28;20034;-48
2024/01/08 00:46:29;;;;;;;9.60;4.88;;;-0.70;99.90;;;;;;5098544;28;20054;-49
2024/01/08 00:48:56;;;;;;;9.02;5.50;;;-0.60;99.90;;;;;;5098505;28;20043;-49
2024/01/08 00:51:22;;;;;;;9.15;5.10;;;-0.70;99.90;;;;;;5100122;28;20022;-50
2024/01/08 00:53:48;;;;;;;10.88;5.32;;;-0.70;99.90;;;;;;5101523;28;20455;-50
2024/01/08 00:56:15;;;;;;;8.75;5.38;;;-0.60;99.90;;;;;;5098799;28;20055;-50
2024/01/08 00:58:43;;;;;;;10.93;5.15;;;-0.60;99.90;;;;;;5102016;28;20104;-50
2024/01/08 01:01:10;;;;;;;8.60;5.00;;;-0.60;99.90;;;;;;5099153;28;20028;-51
2024/01/08 01:03:35;;;;;;;11.18;5.57;;;-0.60;99.90;;;;;;5101791;28;20042;-50
2024/01/08 01:06:01;;;;;;;14.75;6.10;;;-0.60;99.90;;;;;;5099721;28;20095;-48
2024/01/08 01:08:28;;;;;;;9.90;5.35;;;-0.60;99.90;;;;;;5096968;28;20080;-52
2024/01/08 01:10:54;;;;;;;8.85;5.18;;;-0.60;99.90;;;;;;5098882;28;20055;-50
2024/01/08 01:13:19;;;;;;;9.85;5.82;;;-0.60;99.90;;;;;;5099465;28;20051;-49
2024/01/08 01:15:45;;;;;;;9.43;5.22;;;-0.60;99.90;;;;;;5101978;28;20028;-52
2024/01/08 01:18:11;;;;;;;11.07;4.70;;;-0.60;99.90;;;;;;5098641;28;20257;-50
2024/01/08 01:20:37;;;;;;;9.02;4.43;;;-0.60;99.90;;;;;;5101979;28;20023;-49
2024/01/08 01:23:03;;;;;;;9.52;4.03;;;-0.60;99.90;;;;;;5099483;28;20412;-51
2024/01/08 01:25:28;;;;;;;6.93;5.05;;;-0.60;99.90;;;;;;5100764;28;20020;-49
2024/01/08 01:27:54;;;;;;;9.23;5.03;;;-0.60;99.90;;;;;;5101023;28;20231;-51
2024/01/08 01:30:20;;;;;;;8.30;5.20;;;-0.60;99.90;;;;;;5098953;28;20071;-50
2024/01/08 01:32:45;;;;;;;6.72;4.28;;;-0.60;99.90;;;;;;5102033;28;20024;-52
2024/01/08 01:35:11;;;;;;;8.43;4.70;;;-0.60;99.90;;;;;;5098763;28;20016;-50
2024/01/08 01:37:38;;;;;;;9.45;5.22;;;-0.60;99.90;;;;;;5101558;28;20102;-51
2024/01/08 01:40:04;;;;;;;10.25;4.38;;;-0.60;99.90;;;;;;5099282;28;20016;-53
2024/01/08 01:42:30;;;;;;;11.52;5.03;;;-0.60;99.90;;;;;;5100367;28;20016;-50
2024/01/08 01:44:56;;;;;;;10.35;5.32;;;-0.60;99.90;;;;;;5100458;28;20085;-52
2024/01/08 01:47:23;;;;;;;5.63;3.58;;;-0.60;99.90;;;;;;5099532;28;20027;-51
2024/01/08 01:49:50;;;;;;;8.27;4.60;;;-0.60;99.90;;;;;;5100923;28;20358;-53
2024/01/08 01:52:18;;;;;;;8.38;4.63;;;-0.70;99.90;;;;;;5098486;28;20047;-51
2024/01/08 01:54:44;;;;;;;7.53;4.50;;;-0.70;99.90;;;;;;5101654;28;20066;-52
2024/01/08 01:57:09;;;;;;;7.80;4.63;;;-0.70;99.90;;;;;;5098267;28;20051;-51
2024/01/08 01:59:35;;;;;;;9.60;4.13;;;-0.70;99.90;;;;;;5101018;28;20019;-52
2024/01/08 02:02:01;;;;;;;7.40;4.07;;;-0.70;99.90;;;;;;5099719;28;20469;-53
2024/01/08 02:04:30;;;;;;;6.85;3.80;;;-0.70;99.90;;;;;;5099912;28;20392;-51
2024/01/08 02:06:58;;;;;;;7.07;3.90;;;-0.70;99.90;;;;;;5099002;28;20047;-52
2024/01/08 02:09:26;;;;;;;9.05;4.20;;;-0.70;99.90;;;;;;5098114;28;20024;-50
2024/01/08 02:11:52;;;;;;;7.65;4.43;;;-0.70;99.90;;;;;;5101202;28;20307;-48
2024/01/08 02:14:18;;;;;;;8.95;4.20;;;-0.70;99.90;;;;;;5098975;28;20024;-52
2024/01/08 02:16:43;;;;;;;8.82;4.72;;;-0.70;99.90;;;;;;5099612;28;20020;-53
2024/01/08 02:19:10;;;;;;;7.72;4.45;;;-0.70;99.90;;;;;;5097975;28;20082;-50
2024/01/08 02:21:36;;;;;;;8.85;4.15;;;-0.70;99.90;;;;;;5100120;28;20027;-52
2024/01/08 02:24:05;;;;;;;10.13;4.90;;;-0.70;99.90;;;;;;5097876;28;20034;-52
2024/01/08 02:26:31;;;;;;;7.90;4.65;;;-0.70;99.90;;;;;;5100022;28;20024;-51
2024/01/08 02:28:56;;;;;;;9.38;5.47;;;-0.60;99.90;;;;;;5099878;28;20030;-52
2024/01/08 02:31:22;;;;;;;8.00;4.40;;;-0.70;99.90;;;;;;5098033;28;20069;-52
2024/01/08 02:33:48;;;;;;;11.50;5.20;;;-0.70;99.90;;;;;;5101719;28;20028;-50
2024/01/08 02:36:14;;;;;;;10.82;5.50;;;-0.70;99.90;;;;;;5098122;28;20141;-49
2024/01/08 02:38:39;;;;;;;11.43;5.47;;;-0.70;99.90;;;;;;5083916;28;20521;-50
2024/01/08 02:41:05;;;;;;;10.70;5.72;;;-0.70;99.90;;;;;;5088006;28;20054;-50
2024/01/08 02:43:32;;;;;;;9.63;5.68;;;-0.80;99.90;;;;;;5088627;28;20467;-50
2024/01/08 02:45:58;;;;;;;9.43;5.40;;;-0.80;99.90;;;;;;5087366;28;20016;-49
2024/01/08 02:48:23;;;;;;;10.55;4.93;;;-0.80;99.90;;;;;;5088957;28;20035;-53
2024/01/08 02:50:49;;;;;;;9.63;6.38;;;-0.80;99.90;;;;;;5097161;28;20020;-53
2024/01/08 02:53:15;;;;;;;11.77;5.90;;;-0.80;99.90;;;;;;5087993;28;20093;-53
2024/01/08 02:55:40;;;;;;;11.85;5.82;;;-0.80;99.90;;;;;;5092247;28;20020;-50
2024/01/08 02:58:07;;;;;;;11.40;5.47;;;-0.90;99.90;;;;;;5090080;28;20028;-50
2024/01/08 03:00:32;;;;;;;13.43;6.72;;;-0.90;99.90;;;;;;5101436;28;20377;-53
2024/01/08 03:02:58;;;;;;;10.73;5.82;;;-0.90;99.90;;;;;;5090647;28;20076;-52
2024/01/08 03:05:24;;;;;;;12.70;6.57;;;-0.90;99.90;;;;;;5092403;28;20171;-52
2024/01/08 03:07:49;;;;;;;13.85;6.50;;;-0.90;99.90;;;;;;5090287;28;20018;-53
2024/01/08 03:10:15;;;;;;;15.00;6.00;;;-0.90;99.90;;;;;;5095368;28;20020;-52
2024/01/08 03:12:41;;;;;;;13.32;6.30;;;-0.90;99.90;;;;;;5101823;28;20556;-53
2024/01/08 03:15:07;;;;;;;26.13;9.68;;;-0.90;99.90;;;;;;5094278;28;20024;-54
2024/01/08 03:17:32;;;;;;;11.23;5.90;;;-0.90;99.90;;;;;;5095758;28;20262;-52
2024/01/08 03:19:58;;;;;;;14.60;5.78;;;-0.90;99.90;;;;;;5099998;28;20023;-53
2024/01/08 03:22:24;;;;;;;10.05;5.57;;;-1.00;99.90;;;;;;5099813;28;20327;-50
2024/01/08 03:24:49;;;;;;;9.77;5.88;;;-1.00;99.90;;;;;;5101641;28;20461;-53
2024/01/08 03:27:15;;;;;;;10.07;6.18;;;-1.00;99.90;;;;;;5098914;28;20035;-50
2024/01/08 03:29:40;;;;;;;10.18;4.78;;;-1.10;99.90;;;;;;5105510;28;20055;-52
2024/01/08 03:32:09;;;;;;;10.73;6.00;;;-1.30;99.90;;;;;;5103298;28;20534;-51
2024/01/08 03:34:34;;;;;;;8.70;4.60;;;-1.40;99.90;;;;;;5105344;28;20534;-52
2024/01/08 03:37:00;;;;;;;11.65;5.20;;;-1.50;99.90;;;;;;5103756;28;20054;-51
2024/01/08 03:39:26;;;;;;;9.90;5.22;;;-1.60;99.90;;;;;;5103284;28;20050;-54
2024/01/08 03:41:52;;;;;;;13.90;6.78;;;-1.60;99.90;;;;;;5105698;28;20052;-53
2024/01/08 03:44:17;;;;;;;14.18;6.20;;;-1.70;99.90;;;;;;5102414;28;20460;-50
2024/01/08 03:46:43;;;;;;;11.90;5.82;;;-1.70;99.90;;;;;;5105383;28;20040;-51
2024/01/08 03:49:08;;;;;;;10.35;5.40;;;-1.80;99.90;;;;;;5102598;28;20140;-50
2024/01/08 03:51:35;;;;;;;10.27;5.30;;;-1.90;99.90;;;;;;5104829;28;20071;-53
2024/01/08 03:54:01;;;;;;;7.57;4.50;;;-1.90;99.90;;;;;;5103900;28;20056;-52
2024/01/08 03:56:26;;;;;;;11.75;5.25;;;-2.00;99.90;;;;;;5103449;28;20020;-52
2024/01/08 03:58:52;;;;;;;14.45;5.90;;;-2.00;99.90;;;;;;5104696;28;20056;-52
2024/01/08 04:01:18;;;;;;;8.10;5.10;;;-2.10;99.90;;;;;;5102319;28;20549;-50
2024/01/08 04:03:43;;;;;;;8.35;4.20;;;-2.20;99.90;;;;;;5100142;28;20028;-53
2024/01/08 04:06:09;;;;;;;7.22;3.80;;;-2.20;99.90;;;;;;5102676;28;20370;-52
2024/01/08 04:08:35;;;;;;;8.10;4.00;;;-2.30;99.90;;;;;;5104547;28;20042;-52
2024/01/08 04:11:00;;;;;;;7.18;3.22;;;-2.30;99.90;;;;;;5104016;28;20023;-50
2024/01/08 04:13:26;;;;;;;7.68;3.85;;;-2.40;99.90;;;;;;5103685;28;20027;-52
2024/01/08 04:15:52;;;;;;;7.53;4.07;;;-2.50;99.90;;;;;;5105043;28;20556;-50
2024/01/08 04:18:17;;;;;;;8.07;4.05;;;-2.50;99.90;;;;;;5101883;28;20034;-49
2024/01/08 04:20:43;;;;;;;9.18;4.43;;;-2.50;99.90;;;;;;5105113;28;20086;-52
2024/01/08 04:23:09;;;;;;;8.90;4.32;;;-2.50;99.90;;;;;;5102615;28;20085;-52
2024/01/08 04:25:34;;;;;;;6.57;4.03;;;-2.50;99.90;;;;;;5104542;28;20032;-50
2024/01/08 04:28:00;;;;;;;6.90;3.75;;;-2.60;99.90;;;;;;5102626;28;20020;-49
2024/01/08 04:30:26;;;;;;;6.57;3.10;;;-2.60;99.90;;;;;;5097840;28;20447;-49
2024/01/08 04:32:52;;;;;;;5.15;3.47;;;-2.70;99.90;;;;;;5105259;28;20008;-52
2024/01/08 04:35:18;;;;;;;5.57;2.85;;;-2.70;99.90;;;;;;5099442;28;20016;-51
2024/01/08 04:37:44;;;;;;;5.95;3.33;;;-2.70;99.90;;;;;;5104709;28;20460;-50
2024/01/08 04:40:10;;;;;;;7.45;3.78;;;-2.80;99.90;;;;;;5100667;28;20472;-51
2024/01/08 04:42:36;;;;;;;5.93;3.58;;;-2.80;99.90;;;;;;5104751;28;20053;-48
2024/01/08 04:45:01;;;;;;;5.40;2.88;;;-2.80;99.90;;;;;;5103739;28;20020;-48
2024/01/08 04:47:27;;;;;;;6.75;3.35;;;-2.90;99.90;;;;;;5103933;28;20024;-49
2024/01/08 04:49:53;;;;;;;6.07;3.28;;;-2.90;99.90;;;;;;5104694;28;20019;-50
2024/01/08 04:52:18;;;;;;;6.25;3.08;;;-2.90;99.90;;;;;;5101881;28;20106;-51
2024/01/08 04:54:45;;;;;;;7.28;3.63;;;-2.90;99.90;;;;;;5104955;28;20024;-50
2024/01/08 04:57:11;;;;;;;7.93;3.63;;;-3.00;99.90;;;;;;5101098;28;20543;-53
2024/01/08 04:59:43;;;;;;;6.32;3.97;;;-3.00;99.90;;;;;;5103170;28;20050;-49
2024/01/08 05:02:09;;;;;;;8.07;3.67;;;-3.00;99.90;;;;;;5102751;28;20095;-50
2024/01/08 05:04:35;;;;;;;6.53;4.25;;;-3.00;99.90;;;;;;5104896;28;20023;-52
2024/01/08 05:07:02;;;;;;;6.22;3.78;;;-3.10;99.90;;;;;;5103857;28;20314;-53
2024/01/08 05:09:28;;;;;;;7.53;3.90;;;-3.10;99.90;;;;;;5103411;28;20016;-49
2024/01/08 05:11:54;;;;;;;7.97;4.20;;;-3.20;99.90;;;;;;5101395;28;20371;-53
2024/01/08 05:14:20;;;;;;;6.95;3.97;;;-3.20;99.90;;;;;;5098429;28;20027;-49
2024/01/08 05:16:45;;;;;;;8.98;4.53;;;-3.40;99.90;;;;;;5096513;28;20102;-50
2024/01/08 05:19:11;;;;;;;8.07;4.25;;;-3.30;99.90;;;;;;5094624;28;20445;-51
2024/01/08 05:21:36;;;;;;;8.77;3.97;;;-3.30;99.90;;;;;;5097461;28;20019;-53
2024/01/08 05:24:02;;;;;;;8.63;4.18;;;-3.40;99.90;;;;;;5094497;28;20384;-51
2024/01/08 05:26:28;;;;;;;7.90;3.53;;;-3.40;99.90;;;;;;5096634;28;20016;-52
2024/01/08 05:28:53;;;;;;;8.73;4.18;;;-3.50;99.90;;;;;;5095121;28;20024;-51
2024/01/08 05:31:21;;;;;;;5.93;4.22;;;-3.50;99.90;;;;;;5095518;28;20024;-51
2024/01/08 05:33:46;;;;;;;8.00;4.22;;;-3.50;99.90;;;;;;5096466;28;20372;-53
2024/01/08 05:36:12;;;;;;;6.35;4.00;;;-3.50;99.90;;;;;;5094632;28;20115;-51
2024/01/08 05:38:38;;;;;;;11.20;4.22;;;-3.50;99.90;;;;;;5096790;28;20458;-50
2024/01/08 05:41:03;;;;;;;9.38;4.13;;;-3.60;99.90;;;;;;5094679;28;20024;-49
2024/01/08 05:43:29;;;;;;;8.93;4.18;;;-3.60;99.90;;;;;;5096695;28;20020;-50
2024/01/08 05:45:56;;;;;;;6.47;3.63;;;-3.60;99.90;;;;;;5093478;28;20090;-49
2024/01/08 05:48:21;;;;;;;9.23;3.92;;;-3.60;99.90;;;;;;5095526;28;20028;-53
2024/01/08 05:50:47;;;;;;;8.60;4.50;;;-3.60;99.90;;;;;;5095030;28;20027;-54
2024/01/08 05:53:13;;;;;;;6.28;3.67;;;-3.70;99.90;;;;;;5092685;28;20032;-53
2024/01/08 05:55:39;;;;;;;6.90;4.43;;;-3.70;99.90;;;;;;5100373;28;20076;-50
2024/01/08 05:58:04;;;;;;;9.75;3.95;;;-3.80;99.60;;;;;;5101945;28;20127;-50
2024/01/08 06:00:30;;;;;;;10.23;4.20;;;-3.80;99.40;;;;;;5103248;28;20047;-51
2024/01/08 06:02:56;;;;;;;7.20;3.83;;;-3.80;99.90;;;;;;5100088;28;20032;-52
2024/01/08 06:05:22;;;;;;;8.05;4.18;;;-3.80;99.90;;;;;;5096116;28;20085;-53
2024/01/08 06:07:48;;;;;;;7.78;4.53;;;-3.80;99.20;;;;;;5098665;28;20023;-49
2024/01/08 06:10:14;;;;;;;6.25;3.50;;;-3.80;99.90;;;;;;5101527;28;20378;-50
2024/01/08 06:12:42;;;;;;;6.70;3.88;;;-3.80;99.20;;;;;;5104901;28;20027;-54
2024/01/08 06:15:08;;;;;;;8.27;4.22;;;-3.80;99.90;;;;;;5103001;28;20018;-50
2024/01/08 06:17:34;;;;;;;10.10;3.97;;;-3.90;99.90;;;;;;5097804;28;20461;-50
2024/01/08 06:20:00;;;;;;;7.30;4.68;;;-3.90;99.90;;;;;;5095892;28;20079;-53
2024/01/08 06:22:26;;;;;;;7.90;4.60;;;-3.90;99.90;;;;;;5091345;28;20204;-52
2024/01/08 06:24:52;;;;;;;8.30;4.43;;;-3.90;99.90;;;;;;5090302;28;20024;-53
2024/01/08 06:27:18;;;;;;;11.23;5.05;;;-3.90;99.90;;;;;;5094238;28;20073;-54
2024/01/08 06:29:44;;;;;;;7.88;4.90;;;-4.00;99.90;;;;;;5097474;28;20016;-52
2024/01/08 06:32:10;;;;;;;9.90;5.07;;;-4.00;99.90;;;;;;5102505;28;20381;-53
2024/01/08 06:34:35;;;;;;;10.85;4.57;;;-4.00;99.90;;;;;;5103650;28;20043;-50
2024/01/08 06:37:01;;;;;;;6.78;4.22;;;-4.00;99.90;;;;;;5103669;28;20313;-50
2024/01/08 06:39:27;;;;;;;7.80;4.55;;;-4.00;99.90;;;;;;5102553;28;20058;-51
2024/01/08 06:41:52;;;;;;;6.35;4.28;;;-4.10;99.90;;;;;;5089277;28;20114;-52
2024/01/08 06:44:18;;;;;;;10.48;5.05;;;-4.10;99.90;;;;;;5092819;28;20038;-51
2024/01/08 06:46:43;;;;;;;11.45;4.63;;;-4.10;99.90;;;;;;5096959;28;20295;-53
2024/01/08 06:49:09;;;;;;;8.70;4.82;;;-4.10;99.90;;;;;;5098958;28;20024;-52
2024/01/08 06:51:40;;;;;;;9.25;5.25;;;-4.20;99.90;;;;;;5089215;28;20378;-53
2024/01/08 06:54:07;;;;;;;10.93;4.35;;;-4.20;99.90;;;;;;5091876;28;20061;-52
2024/01/08 06:56:32;;;;;;;10.90;4.80;;;-4.10;99.90;;;;;;5105514;28;20350;-53
2024/01/08 06:59:01;;;;;;;9.95;4.53;;;-4.20;99.90;;;;;;5096479;28;20043;-51
2024/01/08 07:01:28;;;;;;;7.55;4.22;;;-4.20;99.90;;;;;;5093306;28;20027;-49
2024/01/08 07:03:53;;;;;;;7.88;4.47;;;-4.20;99.90;;;;;;5106670;28;20239;-50
2024/01/08 07:06:19;;;;;;;9.10;4.43;;;-4.20;99.90;;;;;;5104642;28;20028;-53
2024/01/08 07:08:45;;;;;;;8.20;4.65;;;-4.20;99.90;;;;;;5105535;28;20069;-50
2024/01/08 07:11:24;;;;;;;9.77;5.13;;;-4.20;99.90;;;;;;5095526;28;20055;-50
2024/01/08 07:13:51;;;;;;;6.90;4.22;;;-4.20;99.90;;;;;;5103558;28;20457;-56
2024/01/08 07:16:18;;;;;;;8.43;4.75;;;-4.20;99.90;;;;;;5106150;28;20111;-51
2024/01/08 07:18:44;;;;;;;7.68;4.57;;;-4.30;99.90;;;;;;5108265;28;20023;-52
2024/01/08 07:21:11;;;;;;;11.43;5.55;;;-4.30;99.90;;;;;;5098424;28;20039;-50
2024/01/08 07:23:37;;;;;;;10.00;4.80;;;-4.30;99.90;;;;;;5097962;28;20012;-50
2024/01/08 07:26:03;;;;;;;11.75;4.75;;;-4.30;99.90;;;;;;5096096;28;20476;-50
2024/01/08 07:28:29;;;;;;;9.35;5.03;;;-4.30;99.90;;;;;;5097534;28;20481;-51
2024/01/08 07:30:55;;;;;;;10.07;5.18;;;-4.30;99.90;;;;;;5096008;28;20125;-49
2024/01/08 07:33:23;;;;;;;7.95;4.50;;;-4.30;99.90;;;;;;5096495;28;20035;-49
2024/01/08 07:35:49;;;;;;;12.73;5.72;;;-4.30;99.90;;;;;;5096532;28;20038;-50
2024/01/08 07:38:15;;;;;;;13.45;4.45;;;-4.40;99.90;;;;;;5095308;28;20055;-50
2024/01/08 07:40:40;;;;;;;9.85;5.35;;;-4.40;99.90;;;;;;5108306;28;20152;-49
2024/01/08 07:43:06;;;;;;;10.25;4.93;;;-4.40;99.90;;;;;;5103434;28;20051;-48
2024/01/08 07:45:32;;;;;;;9.02;4.80;;;-4.40;99.90;;;;;;5103304;28;20016;-52
2024/01/08 07:47:57;;;;;;;9.52;4.40;;;-4.40;99.90;;;;;;5107092;28;20031;-50
2024/01/08 07:50:23;;;;;;;10.05;5.03;;;-4.30;99.90;;;;;;5106295;28;20017;-49
2024/01/08 07:52:49;;;;;;;8.00;4.63;;;-4.40;99.90;;;;;;5108581;28;20073;-53
2024/01/08 07:55:16;;;;;;;9.55;4.75;;;-4.40;99.90;;;;;;5106058;28;20027;-51
2024/01/08 07:57:42;;;;;;;7.03;3.95;;;-4.40;99.90;;;;;;5108277;28;20103;-48
2024/01/08 08:00:09;;;;;;;9.85;4.50;;;-4.40;99.90;;;;;;5106856;28;20095;-50
2024/01/08 08:02:36;;;;;;;10.68;4.68;;;-4.40;99.90;;;;;;5107403;28;20015;-53
2024/01/08 08:05:01;;;;;;;9.13;4.35;;;-4.40;99.90;;;;;;5106607;28;20023;-50
2024/01/08 08:07:28;;;;;;;9.07;4.53;;;-4.30;99.90;;;;;;5100355;28;20035;-54
2024/01/08 08:09:54;;;;;;;9.95;4.85;;;-4.30;99.90;;;;;;5091013;28;20469;-52
2024/01/08 08:12:20;;;;;;;7.97;4.40;;;-4.40;99.90;;;;;;5098355;28;20055;-51
2024/01/08 08:14:48;;;;;;;9.68;5.22;;;-4.30;99.90;;;;;;5103587;28;20059;-48
2024/01/08 08:17:14;;;;;;;8.05;4.47;;;-4.30;99.90;;;;;;5095868;28;20012;-53
2024/01/08 08:19:44;;;;;;;11.32;5.00;;;-4.30;99.90;;;;;;5092787;28;20051;-48
2024/01/08 08:22:12;;;;;;;10.30;4.93;;;-4.30;99.90;;;;;;5094599;28;20039;-47
2024/01/08 08:24:39;;;;;;;9.00;4.78;;;-4.30;99.90;;;;;;5098415;28;20024;-48
2024/01/08 08:27:09;;;;;;;9.00;4.97;;;-4.30;99.90;;;;;;5099607;28;20039;-48
2024/01/08 08:29:37;;;;;;;9.48;4.38;;;-4.30;99.90;;;;;;5102565;28;20065;-52
2024/01/08 08:32:03;;;;;;;12.70;5.70;;;-4.30;99.90;;;;;;5097534;28;20097;-52
2024/01/08 08:34:29;;;;;;;8.88;4.35;;;-4.30;99.90;;;;;;5106524;28;20028;-50
2024/01/08 08:36:55;;;;;;;9.20;5.18;;;-4.30;99.90;;;;;;5107078;28;20485;-53
2024/01/08 08:39:22;;;;;;;8.23;4.20;;;-4.30;99.90;;;;;;5100434;28;20088;-48
2024/01/08 08:41:48;;;;;;;9.27;4.10;;;-4.20;99.90;;;;;;5106531;28;20016;-50
2024/01/08 08:44:14;;;;;;;11.32;4.35;;;-4.20;99.90;;;;;;5106409;28;20230;-49
2024/01/08 08:46:39;;;;;;;8.32;4.38;;;-4.20;99.90;;;;;;5107897;28;20023;-49
2024/01/08 08:49:06;;;;;;;8.95;4.63;;;-4.10;99.90;;;;;;5100197;28;20401;-50
2024/01/08 08:51:34;;;;;;;8.80;4.47;;;-4.10;99.90;;;;;;5098042;28;20024;-49
2024/01/08 08:54:03;;;;;;;12.40;4.07;;;-4.10;99.90;;;;;;5092779;28;20039;-50
2024/01/08 08:56:32;;;;;;;10.05;4.70;;;-4.10;99.90;;;;;;5104050;28;20028;-51
2024/01/08 08:59:00;;;;;;;7.57;4.07;;;-4.10;99.90;;;;;;5107251;28;20047;-48
2024/01/08 09:01:28;;;;;;;10.52;5.13;;;-4.20;99.90;;;;;;5105704;28;20101;-51
2024/01/08 09:03:55;;;;;;;10.68;4.65;;;-4.20;99.90;;;;;;5094131;28;20032;-50
2024/01/08 09:06:23;;;;;;;8.98;4.43;;;-4.10;99.90;;;;;;5091695;28;20020;-49
2024/01/08 09:08:49;;;;;;;11.05;5.28;;;-4.00;99.90;;;;;;5100472;28;20047;-50
2024/01/08 09:11:15;;;;;;;11.63;5.30;;;-4.00;99.90;;;;;;5105944;28;20497;-51
2024/01/08 09:13:42;;;;;;;6.60;4.20;;;-4.00;99.90;;;;;;5106520;28;20012;-50
2024/01/08 09:16:10;;;;;;;10.18;5.03;;;-4.00;99.90;;;;;;5107266;28;20015;-50
2024/01/08 09:18:36;;;;;;;8.07;4.50;;;-4.00;99.90;;;;;;5106711;28;20027;-49
2024/01/08 09:21:02;;;;;;;8.73;5.20;;;-4.00;99.90;;;;;;5106532;28;20023;-48
2024/01/08 09:23:27;;;;;;;8.88;4.57;;;-4.00;99.90;;;;;;5105978;28;20107;-51
2024/01/08 09:25:53;;;;;;;9.20;4.57;;;-3.90;99.90;;;;;;5103185;28;20051;-53
2024/01/08 09:28:19;;;;;;;9.18;4.45;;;-3.90;99.90;;;;;;5105675;28;20024;-53
2024/01/08 09:30:44;;;;;;;8.20;4.18;;;-4.00;99.90;;;;;;5106076;28;20030;-51
2024/01/08 09:33:10;;;;;;;11.10;4.93;;;-4.00;99.90;;;;;;5106798;28;20100;-51
2024/01/08 09:35:36;;;;;;;10.52;5.70;;;-3.90;99.90;;;;;;5106740;28;20024;-52
2024/01/08 09:38:02;;;;;;;9.02;5.30;;;-3.90;99.90;;;;;;5106929;28;20425;-51
2024/01/08 09:40:28;;;;;;;9.77;4.95;;;-3.90;99.90;;;;;;5099370;28;20020;-49
2024/01/08 09:42:59;;;;;;;11.52;5.03;;;-3.90;99.90;;;;;;5094332;28;20084;-50
2024/01/08 09:45:26;;;;;;;7.70;4.28;;;-3.90;99.90;;;;;;5088046;28;20201;-49
2024/01/08 09:47:53;;;;;;;8.73;4.82;;;-3.80;99.90;;;;;;5093049;28;20020;-48
2024/01/08 09:50:20;;;;;;;8.95;4.60;;;-3.80;99.90;;;;;;5094538;28;20031;-50
2024/01/08 09:52:47;;;;;;;9.88;5.47;;;-3.80;99.90;;;;;;5092433;28;20167;-53
2024/01/08 09:55:14;;;;;;;11.25;5.15;;;-3.70;99.90;;;;;;5095506;28;20027;-49
2024/01/08 09:57:40;;;;;;;10.93;4.90;;;-3.70;99.90;;;;;;5091537;28;20031;-50
2024/01/08 10:00:07;;;;;;;8.63;4.85;;;-3.60;99.90;;;;;;5095120;28;20393;-50
2024/01/08 10:02:32;;;;;;;9.13;5.72;;;-3.60;99.90;;;;;;5093910;28;20566;-50
2024/01/08 10:04:59;;;;;;;10.90;5.15;;;-3.50;99.90;;;;;;5094142;28;20070;-52
2024/01/08 10:07:33;;;;;;;12.55;5.10;;;-3.40;99.90;;;;;;5092607;28;20118;-49
2024/01/08 10:10:03;;;;;;;10.82;4.55;;;-3.40;99.90;;;;;;5092089;28;20094;-50
2024/01/08 10:12:32;;;;;;;11.07;5.07;;;-3.40;99.90;;;;;;5093196;28;20069;-52
2024/01/08 10:14:58;;;;;;;9.63;4.35;;;-3.40;99.90;;;;;;5091308;28;20016;-52
2024/01/08 10:17:24;;;;;;;9.00;4.60;;;-3.30;99.90;;;;;;5091845;28;20030;-52
2024/01/08 10:19:50;;;;;;;9.68;4.50;;;-3.30;99.90;;;;;;5090171;28;20500;-51
2024/01/08 10:22:17;;;;;;;8.55;4.78;;;-3.20;99.90;;;;;;5092535;28;20717;-49
2024/01/08 10:24:44;;;;;;;10.73;5.40;;;-3.10;99.90;;;;;;5092499;28;20032;-50
2024/01/08 10:27:11;;;;;;;9.20;5.07;;;-3.10;99.90;;;;;;5092831;28;20020;-51
2024/01/08 10:29:38;;;;;;;7.93;4.68;;;-3.10;99.90;;;;;;5092441;28;20473;-51
2024/01/08 10:32:05;;;;;;;8.88;4.60;;;-3.00;99.90;;;;;;5090622;28;20362;-51
2024/01/08 10:34:33;;;;;;;9.00;5.15;;;-2.80;99.90;;;;;;5091241;28;20020;-52
2024/01/08 10:36:59;;;;;;;8.35;4.68;;;-2.80;99.90;;;;;;5089482;28;20536;-51
2024/01/08 10:39:27;;;;;;;12.20;5.38;;;-2.60;99.30;;;;;;5092023;28;20287;-51
2024/01/08 10:41:54;;;;;;;18.38;5.97;;;-2.40;98.70;;;;;;5089849;28;20028;-52
2024/01/08 10:44:19;;;;;;;11.30;6.93;;;-2.20;99.90;;;;;;5083058;28;20028;-50
2024/01/08 10:46:53;;;;;;;8.55;4.55;;;-1.40;99.50;;;;;;5088198;28;20165;-52
2024/01/08 10:49:19;;;;;;;8.18;5.10;;;0.30;97.00;;;;;;5085036;28;20103;-51
2024/01/08 10:51:48;;;;;;;9.48;5.45;;;2.20;94.00;;;;;;5087821;28;20504;-52
2024/01/08 10:54:17;;;;;;;7.97;4.82;;;3.80;88.90;;;;;;5087766;28;20039;-49
2024/01/08 10:56:47;;;;;;;6.93;4.75;;;5.10;83.10;;;;;;5086644;28;20020;-52
2024/01/08 10:59:22;;;;;;;8.37;4.43;;;5.90;77.40;;;;;;5087248;28;20031;-52
2024/01/08 11:01:49;;;;;;;7.10;4.65;;;7.20;73.40;;;;;;5085604;28;20265;-52
2024/01/08 11:04:15;;;;;;;8.82;4.68;;;7.80;69.30;;;;;;5087180;28;20093;-52
2024/01/08 11:06:42;;;;;;;5.70;4.30;;;8.30;67.40;;;;;;5088621;28;20428;-51
2024/01/08 11:09:29;;;;;;;6.82;4.70;;;8.50;67.00;;;;;;5085036;28;20072;-51
2024/01/08 11:11:55;;;;;;;5.53;4.07;;;9.00;62.30;;;;;;5086473;28;20048;-54
2024/01/08 11:14:23;;;;;;;7.53;4.50;;;9.50;62.80;;;;;;5086209;28;20028;-54
2024/01/08 11:16:50;;;;;;;5.60;3.90;;;9.80;60.40;;;;;;5085494;28;20177;-50
2024/01/08 11:19:18;;;;;;;5.72;3.95;;;9.80;60.60;;;;;;5087175;28;20036;-50
2024/01/08 11:21:47;;;;;;;7.38;4.47;;;10.30;59.50;;;;;;5088068;28;20016;-54
2024/01/08 11:24:13;;;;;;;5.03;3.95;;;10.50;57.90;;;;;;5086068;28;20083;-54
2024/01/08 11:26:47;;;;;;;6.68;4.80;;;10.30;57.20;;;;;;5088112;28;20508;-51
2024/01/08 11:29:14;;;;;;;5.18;3.88;;;9.20;58.40;;;;;;5085668;28;20052;-53
2024/01/08 11:31:47;;;;;;;5.07;3.80;;;7.90;59.50;;;;;;5086651;28;20020;-51
2024/01/08 11:34:51;;;;;;;6.97;4.20;;;7.10;62.00;;;;;;5087586;28;20388;-53
2024/01/08 11:37:40;;;;;;;6.82;4.20;;;5.60;65.80;;;;;;5084342;28;20130;-52
2024/01/08 11:40:19;;;;;;;6.88;4.72;;;4.30;66.30;;;;;;5086808;28;20600;-52
2024/01/08 11:42:50;;;;;;;6.32;4.05;;;3.30;70.00;;;;;;5087738;28;20052;-52
2024/01/08 11:45:16;;;;;;;6.93;4.30;;;2.70;73.00;;;;;;5087177;28;20032;-53
2024/01/08 11:47:43;;;;;;;5.57;4.00;;;2.20;73.60;;;;;;5088520;28;20071;-52
2024/01/08 11:50:12;;;;;;;8.20;4.90;;;1.70;73.60;;;;;;5092045;28;20020;-53
2024/01/08 11:52:39;;;;;;;8.07;4.25;;;1.30;77.00;;;;;;5091928;28;20531;-53
2024/01/08 11:55:09;;;;;;;8.30;5.05;;;0.90;78.70;;;;;;5091949;28;20039;-50
2024/01/08 11:57:39;;;;;;;6.25;4.20;;;0.60;79.90;;;;;;5091426;28;20283;-52
2024/01/08 12:00:12;;;;;;;8.52;4.55;;;0.50;82.30;;;;;;5090609;28;20028;-53
2024/01/08 12:02:39;;;;;;;8.43;3.83;;;0.00;82.50;;;;;;5090460;28;20016;-52
2024/01/08 12:05:05;;;;;;;7.88;4.13;;;-0.10;83.20;;;;;;5090172;28;20077;-56
2024/01/08 12:07:32;;;;;;;8.18;4.00;;;-0.20;84.50;;;;;;5092747;28;20469;-52
2024/01/08 12:10:06;;;;;;;9.52;4.03;;;-0.20;84.10;;;;;;5090000;28;20332;-55
2024/01/08 12:12:32;;;;;;;7.22;4.28;;;-0.30;84.80;;;;;;5089023;28;20393;-51
2024/01/08 12:14:58;;;;;;;6.13;3.78;;;-0.50;86.30;;;;;;5090519;28;20020;-49
2024/01/08 12:17:24;;;;;;;6.80;4.15;;;-0.50;85.40;;;;;;5090304;28;20034;-52
2024/01/08 12:19:52;;;;;;;6.82;3.33;;;-0.60;84.90;;;;;;5088415;28;20036;-51
2024/01/08 12:22:19;;;;;;;12.05;3.63;;;-0.70;85.40;;;;;;5090034;28;20035;-53
2024/01/08 12:24:55;;;;;;;8.65;3.83;;;-0.80;87.80;;;;;;5090438;28;20016;-53
2024/01/08 12:27:25;;;;;;;6.90;3.83;;;-0.80;86.90;;;;;;5088698;28;20542;-49
2024/01/08 12:29:54;;;;;;;8.00;3.50;;;-0.90;88.10;;;;;;5088320;28;20481;-55
2024/01/08 12:32:21;;;;;;;9.15;3.80;;;-0.90;87.00;;;;;;5091061;28;20473;-55
2024/01/08 12:34:47;;;;;;;8.98;4.60;;;-1.00;87.00;;;;;;5089864;28;20024;-51
2024/01/08 12:37:15;;;;;;;8.65;3.60;;;-0.90;89.20;;;;;;5090291;28;20248;-53
2024/01/08 12:39:42;;;;;;;7.68;4.88;;;-1.00;88.60;;;;;;5089914;28;20062;-50
2024/01/08 12:42:18;;;;;;;11.50;4.85;;;-1.10;89.80;;;;;;5089398;28;20028;-54